Burlington, IA (52601)

8:30 AM CDT on August 30, 2015 (GMT -0500)
Spirit Hollow GC | | Change Station
CLOSE
Current Station
Personal Weather Station
Location: Burlington, IA
Elevation: 650 ft
Nearby Weather Stations
Active Advisory: Dense Fog Advisory

Elev 650 ft 40.76 °N, 91.14 °W | Updated 21 seconds ago

Fog
Fog
66.0 °F
Feels Like 66.0 °F
N
0.0
Wind Variable Wind from NE
Gusts 0.0 mph

Today
High -- | Low -- °F
--% Chance of Precip.
Yesterday
High -- | Low -- °F
Precip. -- in
6:29 AM 7:40 PM
Full, 99% visible
Pressure 30.05 in
Visibility 0.2 miles
Clouds
Dew Point 56 °F
Humidity 69%
Rainfall 0.00 in
Snow Depth Not available.
UV Not available.
Pollen 10.40 out of 12
Air Quality Not available.
Flu Activity Not available.
METAR KBRL 301253Z AUTO 09003KT M1/4SM FG VV001 19/19 A3006 RMK AO2 SLP175 T01890189
Pressure 30.05 in
Visibility 0.2 miles
Clouds
Dew Point 56 °F
Humidity 69%
Rainfall 0.00 in
Snow Depth Not available.
UV Not available.
Pollen 10.40 out of 12
Air Quality Not available.
Flu Activity Not available.
METAR KBRL 301253Z AUTO 09003KT M1/4SM FG VV001 19/19 A3006 RMK AO2 SLP175 T01890189

10-Day Weather Forecast

×

Almanac

Astronomy

Aug. 30, 2015 Rise Set
Actual Time
Civil Twilight
Nautical Twilight
Astronomical Twilight
Moon
Length of Visible Light
Length of Day
Tomorrow will be .
, % of the Moon is Illuminated

Today's Extremes

State Highs State Lows

Community

WunderPhotos

Upload Photos

1,850,953 photos uploaded!

WunderBlogs® & News

Nearby

Air Quality

  Air Quality AQ Index Pollutant
Not available.

Snow Depth

Station Depth Elevation

Earthquake Activity

City Distance Mag. Time & Date
Minimum magnitude displayed is 2.5.

Coastal Water Temperatures

Place Temperature

Stations

Nearby Weather Stations

Station Location Temp. Windchill Dew Point Humidity Wind Precip. Elev Updated Type
                   
Dense Fog Advisory
Statement as of 1:35 AM CDT on August 30, 2015

... Dense fog advisory remains in effect until 11 am CDT this
morning...

* timing... now through 11 am CDT Sunday

* visibilities... one quarter mile or less at times. Near zero
visibility could occur in some areas.

* Impacts... driving could become difficult. Be sure to slow
down... use your headlights... and leave plenty of space ahead
of of you.

Precautionary/preparedness actions...

A dense fog advisory means visibilities will frequently be
reduced to less than one quarter mile. If driving... slow down...
use your headlights... and leave plenty of distance ahead of you.